Western King — CY7367 — position and weather

sailwx.info

Track history (hours):
 
Tides and Currents Weather Stations Pressure Air Temp Water Temp Dewpoint Dewpoint Depression Visibility Wind Speed Wind Dir Waves Ship Positions

Western King

Last reported at 2015-Jan-30 17:33 UTC. Time now 2015-Jan-30 18:34 UTC.
Position N 49°07' W 123°10'.

Length 23 m; draft 3.8 m.

Type: Fishing. MMSI: 316003779.

Date/timePositionNaut miles runAvg speedWind from/ knotsBaromVisibWave heightAir tempDewpointWater temp
2015-Jan-30 17:33N 49°07' W 123°10'0 0.0
2015-Jan-30 16:33N 49°07' W 123°10'0 0.0
2015-Jan-30 15:31N 49°07' W 123°10'0 0.0
2015-Jan-30 14:33N 49°07' W 123°10'0 0.0
2015-Jan-30 13:31N 49°07' W 123°10'0 0.0
2015-Jan-30 12:33N 49°07' W 123°10'4 4.3
2015-Jan-30 11:33N 49°07' W 123°16'8 8.1
2015-Jan-30 10:33N 49°03' W 123°28'7 6.5
2015-Jan-30 09:30N 48°59' W 123°36'0 0.1
2015-Jan-30 08:31N 48°59' W 123°36'0 0.2
2015-Jan-30 07:33N 48°59' W 123°36'0 0.2
2015-Jan-30 06:29N 48°59' W 123°36'1 0.6
2015-Jan-30 05:33N 48°59' W 123°36'0 0.3
2015-Jan-30 04:17N 48°59' W 123°36'1 2.0
2015-Jan-30 03:33N 48°58' W 123°34'6 6.2
2015-Jan-30 02:33N 49°03' W 123°29'1111.2
2015-Jan-30 01:34N 49°08' W 123°14'2 1.6
2015-Jan-30 00:33N 49°07' W 123°11'0 0.1
2015-Jan-29 23:33N 49°07' W 123°12'0 0.0
2015-Jan-29 22:34N 49°07' W 123°12'0 0.0
2015-Jan-29 21:34N 49°07' W 123°12'0 0.0
2015-Jan-29 20:33N 49°07' W 123°12'0 0.0
2015-Jan-29 19:33N 49°07' W 123°12'0 0.0
2015-Jan-29 18:33N 49°07' W 123°12'0 0.0
2015-Jan-29 17:33N 49°07' W 123°12'1 1.4
2015-Jan-29 16:33N 49°08' W 123°14'7 7.1
2015-Jan-29 15:34N 49°05' W 123°23'8 7.8
2015-Jan-29 14:33N 49°01' W 123°34'3 2.9
2015-Jan-29 13:33N 49°01' W 123°39'5 5.4
2015-Jan-29 12:33N 48°56' W 123°37'3 2.9
2015-Jan-29 11:32N 48°53' W 123°35'5 3.8
2015-Jan-29 10:13N 48°58' W 123°35'1 0.4
2015-Jan-29 08:12N 48°59' W 123°35'0 0.0
2015-Jan-29 07:22N 48°59' W 123°35'2 1.5
2015-Jan-29 06:16N 48°58' W 123°33'0 0.1
2015-Jan-29 04:31N 48°57' W 123°33'3 1.4
2015-Jan-29 02:30N 48°60' W 123°36'8 8.9
2015-Jan-29 01:33N 49°04' W 123°25'10 9.9
2015-Jan-29 00:33N 49°07' W 123°10'0 0.0
2015-Jan-28 23:33N 49°07' W 123°10'0 0.0
2015-Jan-28 22:33N 49°07' W 123°10'0 0.0
2015-Jan-28 21:33N 49°07' W 123°10'0 0.0
2015-Jan-28 20:33N 49°07' W 123°10'0 0.0
2015-Jan-28 19:33N 49°07' W 123°10'0 0.0
2015-Jan-28 18:33N 49°07' W 123°10'0 0.0
2015-Jan-28 17:31N 49°07' W 123°10'4 4.1
2015-Jan-28 16:34N 49°07' W 123°16'7 7.2
2015-Jan-28 15:33N 49°04' W 123°26'8 7.7
2015-Jan-28 14:33N 49°00' W 123°36'0 0.5
2015-Jan-28 13:33N 49°00' W 123°37'0 0.0
2015-Jan-28 12:32N 49°00' W 123°37'0 0.3
2015-Jan-28 11:34N 49°00' W 123°36'1 0.6
2015-Jan-28 10:34N 48°60' W 123°36'1 0.5
2015-Jan-28 09:34N 49°00' W 123°36'3 2.8
2015-Jan-28 08:20N 48°57' W 123°33'0 0.5
2015-Jan-28 07:30N 48°57' W 123°34'0 0.3
2015-Jan-28 06:33N 48°57' W 123°34'0 0.2
2015-Jan-28 05:29N 48°58' W 123°35'0 0.1
2015-Jan-28 04:33N 48°58' W 123°35'1 0.7
2015-Jan-28 03:33N 48°57' W 123°34'4 4.5
2015-Jan-28 02:33N 49°02' W 123°33'1110.6
2015-Jan-28 01:33N 49°06' W 123°18'5 4.8
2015-Jan-28 00:33N 49°07' W 123°11'0 0.2
2015-Jan-27 23:34N 49°07' W 123°12'0 0.0
2015-Jan-27 22:34N 49°07' W 123°12'0 0.0
2015-Jan-27 21:34N 49°07' W 123°12'2 2.1
2015-Jan-27 20:34N 49°08' W 123°15'8 7.7
2015-Jan-27 19:34N 49°08' W 123°26'9 8.5
2015-Jan-27 18:33N 49°11' W 123°38'9 8.7
2015-Jan-27 17:33N 49°14' W 123°51'8 8.1
2015-Jan-27 16:33N 49°17' W 124°03'4 4.1
2015-Jan-27 15:29N 49°18' W 124°09'0 0.3
2015-Jan-27 14:31N 49°18' W 124°09'1 0.7
2015-Jan-27 13:31N 49°18' W 124°10'0 0.3
2015-Jan-27 12:29N 49°18' W 124°09'0 0.4
2015-Jan-27 11:33N 49°18' W 124°10'0 0.4
2015-Jan-27 10:31N 49°18' W 124°09'0 0.3
2015-Jan-27 09:23N 49°18' W 124°09'1 1.3
2015-Jan-27 08:22N 49°19' W 124°10'0 0.5
2015-Jan-27 07:32N 49°19' W 124°11'0 0.4
2015-Jan-27 06:33N 49°19' W 124°10'5 5.1
2015-Jan-27 05:33N 49°21' W 124°17'5 5.0
2015-Jan-27 04:33N 49°19' W 124°10'4 4.0
2015-Jan-27 03:29N 49°16' W 124°05'4 4.1
2015-Jan-27 02:33N 49°15' W 123°60'2 1.7
2015-Jan-27 01:33N 49°14' W 123°57'5 4.7
2015-Jan-27 00:31N 49°16' W 124°04'9 8.6
2015-Jan-26 23:31N 49°14' W 123°52'8 8.8
2015-Jan-26 22:33N 49°12' W 123°39'9 9.1
2015-Jan-26 21:34N 49°08' W 123°26'9 9.0
2015-Jan-26 20:33N 49°08' W 123°13'1 1.4
2015-Jan-26 19:34N 49°07' W 123°11'0 0.4
2015-Jan-26 18:33N 49°07' W 123°11'0 0.0
2015-Jan-26 17:33N 49°07' W 123°11'0 0.0
2015-Jan-26 16:33N 49°07' W 123°11'0 0.0
2015-Jan-26 15:33N 49°07' W 123°11'0 0.0
2015-Jan-26 14:33N 49°07' W 123°11'0 0.0
2015-Jan-26 13:33N 49°07' W 123°11'0 0.0
2015-Jan-26 12:33N 49°07' W 123°11'0 0.0
2015-Jan-26 11:33N 49°07' W 123°11'0 0.0
2015-Jan-26 10:33N 49°07' W 123°11'0 0.0
2015-Jan-26 09:33N 49°07' W 123°11'0 0.0
2015-Jan-26 08:33N 49°07' W 123°11'0 0.0
2015-Jan-26 07:33N 49°07' W 123°11'0 0.0
2015-Jan-26 06:33N 49°07' W 123°11'0 0.0
2015-Jan-26 05:33N 49°07' W 123°11'0 0.0
2015-Jan-26 04:33N 49°07' W 123°11'0 0.0
2015-Jan-26 03:33N 49°07' W 123°11'0 0.0
2015-Jan-26 02:33N 49°07' W 123°11'0 0.0
2015-Jan-26 01:33N 49°07' W 123°11'0 0.0
2015-Jan-26 00:33N 49°07' W 123°11'0 0.0
2015-Jan-25 23:33N 49°07' W 123°11'0 0.0
2015-Jan-25 22:33N 49°07' W 123°11'0 0.2
2015-Jan-25 21:33N 49°07' W 123°12'0 0.0
2015-Jan-25 20:33N 49°07' W 123°12'0 0.0
2015-Jan-25 19:33N 49°07' W 123°12'0 0.0
2015-Jan-25 18:33N 49°07' W 123°12'0 0.0
2015-Jan-25 17:33N 49°07' W 123°12'0 0.0
2015-Jan-25 16:33N 49°07' W 123°12'0 0.0
2015-Jan-25 15:33N 49°07' W 123°12'0 0.0
2015-Jan-25 14:33N 49°07' W 123°12'0 0.0
2015-Jan-25 13:33N 49°07' W 123°12'0 0.0
2015-Jan-25 12:33N 49°07' W 123°12'0 0.0
2015-Jan-25 11:33N 49°07' W 123°12'4 3.7
2015-Jan-25 10:33N 49°07' W 123°17'7 6.8
2015-Jan-25 09:33N 49°08' W 123°27'8 8.3
2015-Jan-25 08:33N 49°11' W 123°39'10 8.5
2015-Jan-25 07:25N 49°14' W 123°53'7 7.9
2015-Jan-25 06:30N 49°16' W 124°04'1 1.3
2015-Jan-25 05:27N 49°16' W 124°06'0 0.5
2015-Jan-25 04:32N 49°16' W 124°05'0 0.3
2015-Jan-25 03:29N 49°16' W 124°05'0 0.0
2015-Jan-25 02:33N 49°16' W 124°05'0 0.2
2015-Jan-25 01:26N 49°16' W 124°05'5 5.6
2015-Jan-25 00:31N 49°15' W 123°58'3 2.5
2015-Jan-24 23:32N 49°13' W 123°55'3 0.1
2015-Jan-23 23:27N 49°10' W 123°56'0 0.0
2015-Jan-23 22:14N 49°10' W 123°56'0 0.0
2015-Jan-23 21:29N 49°10' W 123°56'0 0.0
2015-Jan-23 20:30N 49°10' W 123°56'0 0.0
2015-Jan-23 19:33N 49°10' W 123°56'0 0.0
2015-Jan-23 18:25N 49°10' W 123°56'0 0.0
2015-Jan-23 17:31N 49°10' W 123°56'0 0.0
2015-Jan-23 15:18N 49°10' W 123°56'0 0.0
2015-Jan-23 14:06N 49°10' W 123°56'0 0.0
2015-Jan-23 13:31N 49°10' W 123°56'0 0.0
2015-Jan-23 12:14N 49°10' W 123°56'0 0.0
2015-Jan-23 11:28N 49°10' W 123°56'0 0.0
2015-Jan-23 10:29N 49°10' W 123°56'0 0.2
2015-Jan-23 08:24N 49°10' W 123°55'4 4.6
2015-Jan-23 07:33N 49°14' W 123°56'1 1.0
2015-Jan-23 06:33N 49°13' W 123°56'1 1.3
2015-Jan-23 05:32N 49°12' W 123°57'1 1.0
2015-Jan-23 04:32N 49°13' W 123°56'3 2.9
2015-Jan-23 03:32N 49°15' W 123°59'0 0.4
2015-Jan-23 02:26N 49°15' W 123°58'1 0.6
2015-Jan-23 01:31N 49°15' W 123°57'2 2.2
2015-Jan-23 00:32N 49°13' W 123°55'9 8.0
2015-Jan-22 23:24N 49°12' W 123°42'8 9.2
2015-Jan-22 22:33N 49°09' W 123°30'9 9.4
2015-Jan-22 21:33N 49°07' W 123°17'4 4.3
2015-Jan-22 20:33N 49°07' W 123°10'1 0.9
2015-Jan-22 19:33N 49°07' W 123°11'0 0.0
2015-Jan-22 18:33N 49°07' W 123°11'0 0.0
2015-Jan-22 17:33N 49°07' W 123°11'0 0.0
2015-Jan-22 16:33N 49°07' W 123°11'0 0.0
2015-Jan-22 15:33N 49°07' W 123°11'0 0.0
2015-Jan-22 14:33N 49°07' W 123°11'0 0.0
2015-Jan-22 13:33N 49°07' W 123°11'0 0.0
2015-Jan-22 12:33N 49°07' W 123°11'0 0.0
2015-Jan-22 11:33N 49°07' W 123°11'0 0.0
2015-Jan-22 10:33N 49°07' W 123°11'0 0.0
2015-Jan-22 09:33N 49°07' W 123°11'0 0.0
2015-Jan-22 08:33N 49°07' W 123°11'0 0.0
2015-Jan-22 07:33N 49°07' W 123°11'0 0.0
2015-Jan-22 06:33N 49°07' W 123°11'0 0.0
2015-Jan-22 05:33N 49°07' W 123°11'0 0.0
2015-Jan-22 04:33N 49°07' W 123°11'0 0.0
2015-Jan-22 03:33N 49°07' W 123°11'0 0.0
2015-Jan-22 02:33N 49°07' W 123°11'0 0.2
2015-Jan-22 01:34N 49°07' W 123°12'0 0.0
2015-Jan-22 00:33N 49°07' W 123°12'0 0.0
2015-Jan-21 23:34N 49°07' W 123°12'0 0.0
2015-Jan-21 22:50N 49°07' W 123°12'0 0.0
2015-Jan-21 22:46N 49°07' W 123°12'0 0.0
2015-Jan-21 22:34N 49°07' W 123°12'0 0.0
2015-Jan-21 21:34N 49°07' W 123°12'0 0.0
2015-Jan-21 20:34N 49°07' W 123°12'2 1.8
2015-Jan-21 19:34N 49°08' W 123°14'7 7.3
2015-Jan-21 18:34N 49°07' W 123°25'9 9.1
2015-Jan-21 17:34N 49°11' W 123°38'10 9.2
2015-Jan-21 16:30N 49°14' W 123°52'8 8.4
2015-Jan-21 15:31N 49°16' W 124°05'0 0.3
2015-Jan-21 14:31N 49°16' W 124°04'0 0.4
2015-Jan-21 13:30N 49°16' W 124°04'0 0.2
2015-Jan-21 12:33N 49°16' W 124°04'1 0.8
2015-Jan-21 11:28N 49°16' W 124°05'0 0.2
2015-Jan-21 10:33N 49°16' W 124°04'0 0.4
2015-Jan-21 09:32N 49°16' W 124°04'0 0.1
2015-Jan-21 08:32N 49°16' W 124°04'0 0.1
2015-Jan-21 07:31N 49°16' W 124°04'1 1.1
2015-Jan-21 06:26N 49°16' W 124°02'0 0.4
2015-Jan-21 05:30N 49°16' W 124°03'0 0.2
2015-Jan-21 04:29N 49°16' W 124°03'0 0.1
2015-Jan-21 03:33N 49°16' W 124°03'7 6.9
2015-Jan-21 02:28N 49°13' W 123°52'8 9.3
2015-Jan-21 01:34N 49°11' W 123°40'10 9.7
2015-Jan-21 00:34N 49°08' W 123°26'9 9.0
2015-Jan-20 23:34N 49°07' W 123°12'1 1.0
2015-Jan-20 22:33N 49°07' W 123°10'0 0.4
2015-Jan-20 21:34N 49°07' W 123°10'0 0.0
2015-Jan-20 20:34N 49°07' W 123°10'0 0.0
2015-Jan-20 19:33N 49°07' W 123°10'4 3.8
2015-Jan-20 18:33N 49°07' W 123°16'7 7.5
2015-Jan-20 17:34N 49°08' W 123°27'  
Track history (hours):
 
Tides and Currents Weather Stations Pressure Air Temp Water Temp Dewpoint Dewpoint Depression Visibility Wind Speed Wind Dir Waves Ship Positions

Western King

Last reported at 2015-Jan-30 17:33 UTC. Time now 2015-Jan-30 18:34 UTC.
Position N 49°07' W 123°10'.

Length 23 m; draft 3.8 m.

Type: Fishing. MMSI: 316003779.

Date/timePositionNaut miles runAvg speedWind from/ knotsBaromVisibWave heightAir tempDewpointWater temp
2015-Jan-30 17:33N 49°07' W 123°10'0 0.0
2015-Jan-30 16:33N 49°07' W 123°10'0 0.0
2015-Jan-30 15:31N 49°07' W 123°10'0 0.0
2015-Jan-30 14:33N 49°07' W 123°10'0 0.0
2015-Jan-30 13:31N 49°07' W 123°10'0 0.0
2015-Jan-30 12:33N 49°07' W 123°10'4 4.3
2015-Jan-30 11:33N 49°07' W 123°16'8 8.1
2015-Jan-30 10:33N 49°03' W 123°28'7 6.5
2015-Jan-30 09:30N 48°59' W 123°36'0 0.1
2015-Jan-30 08:31N 48°59' W 123°36'0 0.2
2015-Jan-30 07:33N 48°59' W 123°36'0 0.2
2015-Jan-30 06:29N 48°59' W 123°36'1 0.6
2015-Jan-30 05:33N 48°59' W 123°36'0 0.3
2015-Jan-30 04:17N 48°59' W 123°36'1 2.0
2015-Jan-30 03:33N 48°58' W 123°34'6 6.2
2015-Jan-30 02:33N 49°03' W 123°29'1111.2
2015-Jan-30 01:34N 49°08' W 123°14'2 1.6
2015-Jan-30 00:33N 49°07' W 123°11'0 0.1
2015-Jan-29 23:33N 49°07' W 123°12'0 0.0
2015-Jan-29 22:34N 49°07' W 123°12'0 0.0
2015-Jan-29 21:34N 49°07' W 123°12'0 0.0
2015-Jan-29 20:33N 49°07' W 123°12'0 0.0
2015-Jan-29 19:33N 49°07' W 123°12'0 0.0
2015-Jan-29 18:33N 49°07' W 123°12'0 0.0
2015-Jan-29 17:33N 49°07' W 123°12'1 1.4
2015-Jan-29 16:33N 49°08' W 123°14'7 7.1
2015-Jan-29 15:34N 49°05' W 123°23'8 7.8
2015-Jan-29 14:33N 49°01' W 123°34'3 2.9
2015-Jan-29 13:33N 49°01' W 123°39'5 5.4
2015-Jan-29 12:33N 48°56' W 123°37'3 2.9
2015-Jan-29 11:32N 48°53' W 123°35'5 3.8
2015-Jan-29 10:13N 48°58' W 123°35'1 0.4
2015-Jan-29 08:12N 48°59' W 123°35'0 0.0
2015-Jan-29 07:22N 48°59' W 123°35'2 1.5
2015-Jan-29 06:16N 48°58' W 123°33'0 0.1
2015-Jan-29 04:31N 48°57' W 123°33'3 1.4
2015-Jan-29 02:30N 48°60' W 123°36'8 8.9
2015-Jan-29 01:33N 49°04' W 123°25'10 9.9
2015-Jan-29 00:33N 49°07' W 123°10'0 0.0
2015-Jan-28 23:33N 49°07' W 123°10'0 0.0
2015-Jan-28 22:33N 49°07' W 123°10'0 0.0
2015-Jan-28 21:33N 49°07' W 123°10'0 0.0
2015-Jan-28 20:33N 49°07' W 123°10'0 0.0
2015-Jan-28 19:33N 49°07' W 123°10'0 0.0
2015-Jan-28 18:33N 49°07' W 123°10'0 0.0
2015-Jan-28 17:31N 49°07' W 123°10'4 4.1
2015-Jan-28 16:34N 49°07' W 123°16'7 7.2
2015-Jan-28 15:33N 49°04' W 123°26'8 7.7
2015-Jan-28 14:33N 49°00' W 123°36'0 0.5
2015-Jan-28 13:33N 49°00' W 123°37'0 0.0
2015-Jan-28 12:32N 49°00' W 123°37'0 0.3
2015-Jan-28 11:34N 49°00' W 123°36'1 0.6
2015-Jan-28 10:34N 48°60' W 123°36'1 0.5
2015-Jan-28 09:34N 49°00' W 123°36'3 2.8
2015-Jan-28 08:20N 48°57' W 123°33'0 0.5
2015-Jan-28 07:30N 48°57' W 123°34'0 0.3
2015-Jan-28 06:33N 48°57' W 123°34'0 0.2
2015-Jan-28 05:29N 48°58' W 123°35'0 0.1
2015-Jan-28 04:33N 48°58' W 123°35'1 0.7
2015-Jan-28 03:33N 48°57' W 123°34'4 4.5
2015-Jan-28 02:33N 49°02' W 123°33'1110.6
2015-Jan-28 01:33N 49°06' W 123°18'5 4.8
2015-Jan-28 00:33N 49°07' W 123°11'0 0.2
2015-Jan-27 23:34N 49°07' W 123°12'0 0.0
2015-Jan-27 22:34N 49°07' W 123°12'0 0.0
2015-Jan-27 21:34N 49°07' W 123°12'2 2.1
2015-Jan-27 20:34N 49°08' W 123°15'8 7.7
2015-Jan-27 19:34N 49°08' W 123°26'9 8.5
2015-Jan-27 18:33N 49°11' W 123°38'9 8.7
2015-Jan-27 17:33N 49°14' W 123°51'8 8.1
2015-Jan-27 16:33N 49°17' W 124°03'4 4.1
2015-Jan-27 15:29N 49°18' W 124°09'0 0.3
2015-Jan-27 14:31N 49°18' W 124°09'1 0.7
2015-Jan-27 13:31N 49°18' W 124°10'0 0.3
2015-Jan-27 12:29N 49°18' W 124°09'0 0.4
2015-Jan-27 11:33N 49°18' W 124°10'0 0.4
2015-Jan-27 10:31N 49°18' W 124°09'0 0.3
2015-Jan-27 09:23N 49°18' W 124°09'1 1.3
2015-Jan-27 08:22N 49°19' W 124°10'0 0.5
2015-Jan-27 07:32N 49°19' W 124°11'0 0.4
2015-Jan-27 06:33N 49°19' W 124°10'5 5.1
2015-Jan-27 05:33N 49°21' W 124°17'5 5.0
2015-Jan-27 04:33N 49°19' W 124°10'4 4.0
2015-Jan-27 03:29N 49°16' W 124°05'4 4.1
2015-Jan-27 02:33N 49°15' W 123°60'2 1.7
2015-Jan-27 01:33N 49°14' W 123°57'5 4.7
2015-Jan-27 00:31N 49°16' W 124°04'9 8.6
2015-Jan-26 23:31N 49°14' W 123°52'8 8.8
2015-Jan-26 22:33N 49°12' W 123°39'9 9.1
2015-Jan-26 21:34N 49°08' W 123°26'9 9.0
2015-Jan-26 20:33N 49°08' W 123°13'1 1.4
2015-Jan-26 19:34N 49°07' W 123°11'0 0.4
2015-Jan-26 18:33N 49°07' W 123°11'0 0.0
2015-Jan-26 17:33N 49°07' W 123°11'0 0.0
2015-Jan-26 16:33N 49°07' W 123°11'0 0.0
2015-Jan-26 15:33N 49°07' W 123°11'0 0.0
2015-Jan-26 14:33N 49°07' W 123°11'0 0.0
2015-Jan-26 13:33N 49°07' W 123°11'0 0.0
2015-Jan-26 12:33N 49°07' W 123°11'0 0.0
2015-Jan-26 11:33N 49°07' W 123°11'0 0.0
2015-Jan-26 10:33N 49°07' W 123°11'0 0.0
2015-Jan-26 09:33N 49°07' W 123°11'0 0.0
2015-Jan-26 08:33N 49°07' W 123°11'0 0.0
2015-Jan-26 07:33N 49°07' W 123°11'0 0.0
2015-Jan-26 06:33N 49°07' W 123°11'0 0.0
2015-Jan-26 05:33N 49°07' W 123°11'0 0.0
2015-Jan-26 04:33N 49°07' W 123°11'0 0.0
2015-Jan-26 03:33N 49°07' W 123°11'0 0.0
2015-Jan-26 02:33N 49°07' W 123°11'0 0.0
2015-Jan-26 01:33N 49°07' W 123°11'0 0.0
2015-Jan-26 00:33N 49°07' W 123°11'0 0.0
2015-Jan-25 23:33N 49°07' W 123°11'0 0.0
2015-Jan-25 22:33N 49°07' W 123°11'0 0.2
2015-Jan-25 21:33N 49°07' W 123°12'0 0.0
2015-Jan-25 20:33N 49°07' W 123°12'0 0.0
2015-Jan-25 19:33N 49°07' W 123°12'0 0.0
2015-Jan-25 18:33N 49°07' W 123°12'0 0.0
2015-Jan-25 17:33N 49°07' W 123°12'0 0.0
2015-Jan-25 16:33N 49°07' W 123°12'0 0.0
2015-Jan-25 15:33N 49°07' W 123°12'0 0.0
2015-Jan-25 14:33N 49°07' W 123°12'0 0.0
2015-Jan-25 13:33N 49°07' W 123°12'0 0.0
2015-Jan-25 12:33N 49°07' W 123°12'0 0.0
2015-Jan-25 11:33N 49°07' W 123°12'4 3.7
2015-Jan-25 10:33N 49°07' W 123°17'7 6.8
2015-Jan-25 09:33N 49°08' W 123°27'8 8.3
2015-Jan-25 08:33N 49°11' W 123°39'10 8.5
2015-Jan-25 07:25N 49°14' W 123°53'7 7.9
2015-Jan-25 06:30N 49°16' W 124°04'1 1.3
2015-Jan-25 05:27N 49°16' W 124°06'0 0.5
2015-Jan-25 04:32N 49°16' W 124°05'0 0.3
2015-Jan-25 03:29N 49°16' W 124°05'0 0.0
2015-Jan-25 02:33N 49°16' W 124°05'0 0.2
2015-Jan-25 01:26N 49°16' W 124°05'5 5.6
2015-Jan-25 00:31N 49°15' W 123°58'3 2.5
2015-Jan-24 23:32N 49°13' W 123°55'3 0.1
2015-Jan-23 23:27N 49°10' W 123°56'0 0.0
2015-Jan-23 22:14N 49°10' W 123°56'0 0.0
2015-Jan-23 21:29N 49°10' W 123°56'0 0.0
2015-Jan-23 20:30N 49°10' W 123°56'0 0.0
2015-Jan-23 19:33N 49°10' W 123°56'0 0.0
2015-Jan-23 18:25N 49°10' W 123°56'0 0.0
2015-Jan-23 17:31N 49°10' W 123°56'0 0.0
2015-Jan-23 15:18N 49°10' W 123°56'0 0.0
2015-Jan-23 14:06N 49°10' W 123°56'0 0.0
2015-Jan-23 13:31N 49°10' W 123°56'0 0.0
2015-Jan-23 12:14N 49°10' W 123°56'0 0.0
2015-Jan-23 11:28N 49°10' W 123°56'0 0.0
2015-Jan-23 10:29N 49°10' W 123°56'0 0.2
2015-Jan-23 08:24N 49°10' W 123°55'4 4.6
2015-Jan-23 07:33N 49°14' W 123°56'1 1.0
2015-Jan-23 06:33N 49°13' W 123°56'1 1.3
2015-Jan-23 05:32N 49°12' W 123°57'1 1.0
2015-Jan-23 04:32N 49°13' W 123°56'3 2.9
2015-Jan-23 03:32N 49°15' W 123°59'0 0.4
2015-Jan-23 02:26N 49°15' W 123°58'1 0.6
2015-Jan-23 01:31N 49°15' W 123°57'2 2.2
2015-Jan-23 00:32N 49°13' W 123°55'9 8.0
2015-Jan-22 23:24N 49°12' W 123°42'8 9.2
2015-Jan-22 22:33N 49°09' W 123°30'9 9.4
2015-Jan-22 21:33N 49°07' W 123°17'4 4.3
2015-Jan-22 20:33N 49°07' W 123°10'1 0.9
2015-Jan-22 19:33N 49°07' W 123°11'0 0.0
2015-Jan-22 18:33N 49°07' W 123°11'0 0.0
2015-Jan-22 17:33N 49°07' W 123°11'0 0.0
2015-Jan-22 16:33N 49°07' W 123°11'0 0.0
2015-Jan-22 15:33N 49°07' W 123°11'0 0.0
2015-Jan-22 14:33N 49°07' W 123°11'0 0.0
2015-Jan-22 13:33N 49°07' W 123°11'0 0.0
2015-Jan-22 12:33N 49°07' W 123°11'0 0.0
2015-Jan-22 11:33N 49°07' W 123°11'0 0.0
2015-Jan-22 10:33N 49°07' W 123°11'0 0.0
2015-Jan-22 09:33N 49°07' W 123°11'0 0.0
2015-Jan-22 08:33N 49°07' W 123°11'0 0.0
2015-Jan-22 07:33N 49°07' W 123°11'0 0.0
2015-Jan-22 06:33N 49°07' W 123°11'0 0.0
2015-Jan-22 05:33N 49°07' W 123°11'0 0.0
2015-Jan-22 04:33N 49°07' W 123°11'0 0.0
2015-Jan-22 03:33N 49°07' W 123°11'0 0.0
2015-Jan-22 02:33N 49°07' W 123°11'0 0.2
2015-Jan-22 01:34N 49°07' W 123°12'0 0.0
2015-Jan-22 00:33N 49°07' W 123°12'0 0.0
2015-Jan-21 23:34N 49°07' W 123°12'0 0.0
2015-Jan-21 22:50N 49°07' W 123°12'0 0.0
2015-Jan-21 22:46N 49°07' W 123°12'0 0.0
2015-Jan-21 22:34N 49°07' W 123°12'0 0.0
2015-Jan-21 21:34N 49°07' W 123°12'0 0.0
2015-Jan-21 20:34N 49°07' W 123°12'2 1.8
2015-Jan-21 19:34N 49°08' W 123°14'7 7.3
2015-Jan-21 18:34N 49°07' W 123°25'9 9.1
2015-Jan-21 17:34N 49°11' W 123°38'10 9.2
2015-Jan-21 16:30N 49°14' W 123°52'8 8.4
2015-Jan-21 15:31N 49°16' W 124°05'0 0.3
2015-Jan-21 14:31N 49°16' W 124°04'0 0.4
2015-Jan-21 13:30N 49°16' W 124°04'0 0.2
2015-Jan-21 12:33N 49°16' W 124°04'1 0.8
2015-Jan-21 11:28N 49°16' W 124°05'0 0.2
2015-Jan-21 10:33N 49°16' W 124°04'0 0.4
2015-Jan-21 09:32N 49°16' W 124°04'0 0.1
2015-Jan-21 08:32N 49°16' W 124°04'0 0.1
2015-Jan-21 07:31N 49°16' W 124°04'1 1.1
2015-Jan-21 06:26N 49°16' W 124°02'0 0.4
2015-Jan-21 05:30N 49°16' W 124°03'0 0.2
2015-Jan-21 04:29N 49°16' W 124°03'0 0.1
2015-Jan-21 03:33N 49°16' W 124°03'7 6.9
2015-Jan-21 02:28N 49°13' W 123°52'8 9.3
2015-Jan-21 01:34N 49°11' W 123°40'10 9.7
2015-Jan-21 00:34N 49°08' W 123°26'9 9.0
2015-Jan-20 23:34N 49°07' W 123°12'1 1.0
2015-Jan-20 22:33N 49°07' W 123°10'0 0.4
2015-Jan-20 21:34N 49°07' W 123°10'0 0.0
2015-Jan-20 20:34N 49°07' W 123°10'0 0.0
2015-Jan-20 19:33N 49°07' W 123°10'4 3.8
2015-Jan-20 18:33N 49°07' W 123°16'7 7.5
2015-Jan-20 17:34N 49°08' W 123°27'  

Dump ship's entire track history